sensor_id;sensor_type;location;lat;lon;timestamp;pressure;altitude;pressure_sealevel;temperature;humidity
71057;BME280;58380;48.312;9.246;2022-11-30T08:13:39;93756.63;;;1.80;100.00
71057;BME280;58380;48.312;9.246;2022-11-30T08:16:08;93775.06;;;1.98;100.00
71057;BME280;58380;48.312;9.246;2022-11-30T08:18:40;93777.44;;;2.00;100.00
71057;BME280;58380;48.312;9.246;2022-11-30T08:21:08;93782.66;;;2.06;100.00
71057;BME280;58380;48.312;9.246;2022-11-30T08:23:39;93747.03;;;2.00;100.00
71057;BME280;58380;48.312;9.246;2022-11-30T08:28:45;93775.84;;;2.25;100.00
71057;BME280;58380;48.312;9.246;2022-11-30T08:31:23;93767.00;;;2.20;100.00
71057;BME280;58380;48.312;9.246;2022-11-30T08:33:54;93792.66;;;2.29;100.00
71057;BME280;58380;48.312;9.246;2022-11-30T08:36:24;93738.00;;;2.09;100.00
71057;BME280;58380;48.312;9.246;2022-11-30T08:38:51;93796.84;;;2.50;100.00
71057;BME280;58380;48.312;9.246;2022-11-30T08:41:20;93786.19;;;2.52;100.00
71057;BME280;58380;48.312;9.246;2022-11-30T08:43:47;93764.38;;;2.40;100.00
71057;BME280;58380;48.312;9.246;2022-11-30T08:46:15;93796.19;;;2.68;100.00
71057;BME280;58380;48.312;9.246;2022-11-30T08:48:41;93780.56;;;2.62;100.00
71057;BME280;58380;48.312;9.246;2022-11-30T08:51:10;93774.97;;;2.58;100.00
71057;BME280;58380;48.312;9.246;2022-11-30T08:53:37;93772.94;;;2.67;100.00
71057;BME280;58380;48.312;9.246;2022-11-30T08:56:09;93790.94;;;2.81;100.00
71057;BME280;58380;48.312;9.246;2022-11-30T08:58:40;93797.09;;;2.94;100.00
71057;BME280;58380;48.312;9.246;2022-11-30T09:01:10;93799.13;;;2.92;100.00
71057;BME280;58380;48.312;9.246;2022-11-30T09:03:37;93787.28;;;2.89;100.00
71057;BME280;58380;48.312;9.246;2022-11-30T09:06:05;93804.69;;;3.02;100.00
71057;BME280;58380;48.312;9.246;2022-11-30T09:08:44;93764.50;;;2.78;100.00
71057;BME280;58380;48.312;9.246;2022-11-30T09:11:16;93776.88;;;2.89;100.00
71057;BME280;58380;48.312;9.246;2022-11-30T09:13:45;93788.69;;;2.92;100.00
71057;BME280;58380;48.312;9.246;2022-11-30T09:16:11;93815.91;;;3.09;100.00
71057;BME280;58380;48.312;9.246;2022-11-30T09:18:37;93759.47;;;2.76;100.00
71057;BME280;58380;48.312;9.246;2022-11-30T09:21:08;93754.03;;;2.85;100.00
71057;BME280;58380;48.312;9.246;2022-11-30T09:23:36;93765.03;;;2.87;100.00
71057;BME280;58380;48.312;9.246;2022-11-30T09:26:05;93760.84;;;2.92;100.00
71057;BME280;58380;48.312;9.246;2022-11-30T09:28:34;93817.63;;;3.29;100.00
71057;BME280;58380;48.312;9.246;2022-11-30T09:31:27;93801.56;;;3.32;99.91
71057;BME280;58380;48.312;9.246;2022-11-30T09:33:51;93809.63;;;3.23;100.00
71057;BME280;58380;48.312;9.246;2022-11-30T09:36:20;93742.41;;;2.87;100.00
71057;BME280;58380;48.312;9.246;2022-11-30T09:38:48;93805.19;;;3.31;100.00
71057;BME280;58380;48.312;9.246;2022-11-30T09:44:45;93780.88;;;2.92;100.00
71057;BME280;58380;48.312;9.246;2022-11-30T09:50:19;93766.56;;;2.49;100.00
71057;BME280;58380;48.312;9.246;2022-11-30T09:52:51;93802.38;;;2.74;100.00
71057;BME280;58380;48.312;9.246;2022-11-30T09:55:26;93778.19;;;2.60;100.00
71057;BME280;58380;48.312;9.246;2022-11-30T09:58:00;93805.63;;;2.63;100.00
71057;BME280;58380;48.312;9.246;2022-11-30T10:00:28;93782.41;;;2.41;100.00
71057;BME280;58380;48.312;9.246;2022-11-30T10:02:56;93797.22;;;2.61;100.00
71057;BME280;58380;48.312;9.246;2022-11-30T10:05:47;93777.16;;;2.61;100.00
71057;BME280;58380;48.312;9.246;2022-11-30T10:17:52;93808.72;;;3.05;100.00
71057;BME280;58380;48.312;9.246;2022-11-30T10:23:39;93809.53;;;2.98;100.00
71057;BME280;58380;48.312;9.246;2022-11-30T10:26:14;93802.38;;;2.87;100.00
71057;BME280;58380;48.312;9.246;2022-11-30T10:28:58;93794.38;;;2.75;100.00
71057;BME280;58380;48.312;9.246;2022-11-30T10:31:38;93802.94;;;2.89;100.00
71057;BME280;58380;48.312;9.246;2022-11-30T10:34:23;93806.94;;;2.92;100.00
71057;BME280;58380;48.312;9.246;2022-11-30T10:37:00;93810.75;;;2.89;100.00
71057;BME280;58380;48.312;9.246;2022-11-30T10:42:36;93807.75;;;2.92;100.00
71057;BME280;58380;48.312;9.246;2022-11-30T10:45:13;93785.31;;;2.85;100.00
71057;BME280;58380;48.312;9.246;2022-11-30T10:48:05;93783.69;;;2.90;100.00
71057;BME280;58380;48.312;9.246;2022-11-30T10:50:36;93804.50;;;2.97;100.00
71057;BME280;58380;48.312;9.246;2022-11-30T10:53:03;93796.91;;;2.95;100.00
71057;BME280;58380;48.312;9.246;2022-11-30T10:55:34;93783.88;;;2.89;100.00
71057;BME280;58380;48.312;9.246;2022-11-30T10:58:17;93755.69;;;2.66;100.00
71057;BME280;58380;48.312;9.246;2022-11-30T11:00:54;93795.16;;;2.83;100.00
71057;BME280;58380;48.312;9.246;2022-11-30T11:03:26;93783.56;;;2.65;100.00
71057;BME280;58380;48.312;9.246;2022-11-30T11:06:03;93788.31;;;2.81;100.00
71057;BME280;58380;48.312;9.246;2022-11-30T11:08:35;93761.50;;;2.68;100.00
71057;BME280;58380;48.312;9.246;2022-11-30T11:11:01;93753.28;;;2.64;100.00
71057;BME280;58380;48.312;9.246;2022-11-30T11:13:40;93787.16;;;2.77;100.00
71057;BME280;58380;48.312;9.246;2022-11-30T11:16:10;93784.53;;;2.77;100.00
71057;BME280;58380;48.312;9.246;2022-11-30T11:18:56;93779.97;;;2.59;100.00
71057;BME280;58380;48.312;9.246;2022-11-30T11:21:22;93792.19;;;2.66;100.00
71057;BME280;58380;48.312;9.246;2022-11-30T11:23:50;93778.78;;;2.62;100.00
71057;BME280;58380;48.312;9.246;2022-11-30T11:26:23;93756.38;;;2.48;100.00
71057;BME280;58380;48.312;9.246;2022-11-30T11:28:52;93779.38;;;2.57;99.67
71057;BME280;58380;48.312;9.246;2022-11-30T11:31:35;93797.63;;;2.44;100.00
71057;BME280;58380;48.312;9.246;2022-11-30T11:34:22;93788.84;;;2.32;100.00
71057;BME280;58380;48.312;9.246;2022-11-30T11:37:04;93782.41;;;2.34;100.00
71057;BME280;58380;48.312;9.246;2022-11-30T11:39:32;93768.63;;;2.21;100.00
71057;BME280;58380;48.312;9.246;2022-11-30T11:41:58;93794.06;;;2.25;100.00
71057;BME280;58380;48.312;9.246;2022-11-30T11:44:25;93788.06;;;2.11;100.00
71057;BME280;58380;48.312;9.246;2022-11-30T11:47:00;93794.69;;;2.21;100.00
71057;BME280;58380;48.312;9.246;2022-11-30T11:49:31;93791.47;;;2.25;100.00
71057;BME280;58380;48.312;9.246;2022-11-30T11:52:05;93787.84;;;2.33;100.00
71057;BME280;58380;48.312;9.246;2022-11-30T11:54:46;93784.22;;;2.34;100.00
71057;BME280;58380;48.312;9.246;2022-11-30T11:57:15;93757.00;;;2.16;100.00
71057;BME280;58380;48.312;9.246;2022-11-30T11:59:57;93790.22;;;2.34;100.00
71057;BME280;58380;48.312;9.246;2022-11-30T12:02:54;93789.25;;;2.29;100.00
71057;BME280;58380;48.312;9.246;2022-11-30T12:05:29;93745.03;;;2.02;100.00
71057;BME280;58380;48.312;9.246;2022-11-30T12:11:05;93755.63;;;2.14;100.00
71057;BME280;58380;48.312;9.246;2022-11-30T12:13:39;93782.03;;;2.31;100.00
71057;BME280;58380;48.312;9.246;2022-11-30T12:19:10;93770.03;;;2.23;100.00
71057;BME280;58380;48.312;9.246;2022-11-30T12:28:00;93769.03;;;2.11;100.00
71057;BME280;58380;48.312;9.246;2022-11-30T12:36:15;93779.66;;;2.16;100.00
71057;BME280;58380;48.312;9.246;2022-11-30T12:38:58;93752.03;;;2.08;100.00
71057;BME280;58380;48.312;9.246;2022-11-30T12:41:58;93772.81;;;2.28;100.00
71057;BME280;58380;48.312;9.246;2022-11-30T12:44:56;93789.66;;;2.26;99.04
71057;BME280;58380;48.312;9.246;2022-11-30T12:50:26;93769.81;;;2.31;99.00
71057;BME280;58380;48.312;9.246;2022-11-30T12:54:19;93785.63;;;2.36;98.93
71057;BME280;58380;48.312;9.246;2022-11-30T12:56:51;93768.00;;;2.32;99.87
71057;BME280;58380;48.312;9.246;2022-11-30T12:59:49;93759.81;;;2.28;99.21
71057;BME280;58380;48.312;9.246;2022-11-30T13:05:53;93776.03;;;2.30;99.38
71057;BME280;58380;48.312;9.246;2022-11-30T13:11:33;93781.66;;;2.27;100.00
71057;BME280;58380;48.312;9.246;2022-11-30T13:14:05;93781.06;;;2.25;100.00
71057;BME280;58380;48.312;9.246;2022-11-30T13:16:37;93786.03;;;2.40;100.00
71057;BME280;58380;48.312;9.246;2022-11-30T13:19:32;93776.63;;;2.32;100.00
71057;BME280;58380;48.312;9.246;2022-11-30T13:22:40;93787.63;;;2.34;100.00
71057;BME280;58380;48.312;9.246;2022-11-30T13:25:30;93788.84;;;2.32;100.00
71057;BME280;58380;48.312;9.246;2022-11-30T13:28:29;93787.84;;;2.20;100.00
71057;BME280;58380;48.312;9.246;2022-11-30T13:31:13;93783.28;;;2.15;100.00
71057;BME280;58380;48.312;9.246;2022-11-30T13:34:27;93784.44;;;2.26;99.61
71057;BME280;58380;48.312;9.246;2022-11-30T13:37:18;93781.66;;;2.14;98.87
71057;BME280;58380;48.312;9.246;2022-11-30T13:39:52;93792.06;;;2.21;100.00
71057;BME280;58380;48.312;9.246;2022-11-30T13:47:40;93789.47;;;2.14;100.00
71057;BME280;58380;48.312;9.246;2022-11-30T14:05:49;93780.28;;;2.05;100.00
71057;BME280;58380;48.312;9.246;2022-11-30T14:23:20;93774.25;;;2.18;100.00
71057;BME280;58380;48.312;9.246;2022-11-30T14:25:53;93762.06;;;2.05;100.00
71057;BME280;58380;48.312;9.246;2022-11-30T14:31:16;93774.06;;;2.12;100.00
71057;BME280;58380;48.312;9.246;2022-11-30T14:33:54;93780.47;;;2.10;100.00
71057;BME280;58380;48.312;9.246;2022-11-30T14:36:27;93788.06;;;2.11;100.00
71057;BME280;58380;48.312;9.246;2022-11-30T14:38:59;93713.22;;;1.60;100.00
71057;BME280;58380;48.312;9.246;2022-11-30T14:41:27;93787.25;;;2.04;100.00
71057;BME280;58380;48.312;9.246;2022-11-30T14:43:58;93790.69;;;2.05;100.00
71057;BME280;58380;48.312;9.246;2022-11-30T14:46:24;93795.06;;;2.04;99.45
71057;BME280;58380;48.312;9.246;2022-11-30T14:49:11;93790.06;;;1.96;100.00
71057;BME280;58380;48.312;9.246;2022-11-30T14:51:44;93791.28;;;1.93;99.64
71057;BME280;58380;48.312;9.246;2022-11-30T14:54:33;93793.50;;;1.90;100.00
71057;BME280;58380;48.312;9.246;2022-11-30T14:57:18;93796.47;;;1.87;100.00
71057;BME280;58380;48.312;9.246;2022-11-30T14:59:53;93794.69;;;1.87;100.00
71057;BME280;58380;48.312;9.246;2022-11-30T15:02:30;93782.28;;;1.83;99.53
71057;BME280;58380;48.312;9.246;2022-11-30T15:05:01;93769.25;;;1.76;99.77
71057;BME280;58380;48.312;9.246;2022-11-30T15:07:31;93786.69;;;1.82;99.22
71057;BME280;58380;48.312;9.246;2022-11-30T15:10:03;93788.28;;;1.83;100.00
71057;BME280;58380;48.312;9.246;2022-11-30T15:12:32;93779.84;;;1.75;100.00
71057;BME280;58380;48.312;9.246;2022-11-30T15:15:12;93792.47;;;1.84;100.00
71057;BME280;58380;48.312;9.246;2022-11-30T15:17:55;93777.66;;;1.78;100.00
71057;BME280;58380;48.312;9.246;2022-11-30T15:20:24;93795.28;;;1.83;100.00
71057;BME280;58380;48.312;9.246;2022-11-30T15:22:56;93768.66;;;1.67;100.00
71057;BME280;58380;48.312;9.246;2022-11-30T15:25:27;93794.28;;;1.84;100.00
71057;BME280;58380;48.312;9.246;2022-11-30T15:27:58;93787.47;;;1.76;100.00
71057;BME280;58380;48.312;9.246;2022-11-30T15:30:24;93709.00;;;1.33;100.00
71057;BME280;58380;48.312;9.246;2022-11-30T15:32:50;93790.28;;;1.88;100.00
71057;BME280;58380;48.312;9.246;2022-11-30T15:35:19;93780.47;;;1.77;100.00
71057;BME280;58380;48.312;9.246;2022-11-30T15:37:48;93760.44;;;1.64;100.00
71057;BME280;58380;48.312;9.246;2022-11-30T15:40:20;93801.69;;;1.93;100.00
71057;BME280;58380;48.312;9.246;2022-11-30T15:42:51;93734.41;;;1.44;100.00
71057;BME280;58380;48.312;9.246;2022-11-30T15:45:30;93801.09;;;1.85;100.00
71057;BME280;58380;48.312;9.246;2022-11-30T15:47:59;93750.03;;;1.50;100.00
71057;BME280;58380;48.312;9.246;2022-11-30T15:53:01;93787.47;;;1.69;100.00
71057;BME280;58380;48.312;9.246;2022-11-30T15:55:46;93765.03;;;1.55;100.00
71057;BME280;58380;48.312;9.246;2022-11-30T16:01:05;93799.69;;;1.76;100.00
71057;BME280;58380;48.312;9.246;2022-11-30T16:06:22;93774.25;;;1.64;100.00
71057;BME280;58380;48.312;9.246;2022-11-30T16:08:49;93764.06;;;1.63;100.00
71057;BME280;58380;48.312;9.246;2022-11-30T16:11:16;93798.69;;;1.83;100.00
71057;BME280;58380;48.312;9.246;2022-11-30T16:13:42;93791.66;;;1.77;100.00
71057;BME280;58380;48.312;9.246;2022-11-30T16:16:12;93807.28;;;1.84;100.00
71057;BME280;58380;48.312;9.246;2022-11-30T16:18:44;93753.41;;;1.44;100.00
71057;BME280;58380;48.312;9.246;2022-11-30T16:21:10;93799.69;;;1.76;100.00
71057;BME280;58380;48.312;9.246;2022-11-30T16:23:40;93797.06;;;1.69;100.00
71057;BME280;58380;48.312;9.246;2022-11-30T16:26:11;93817.09;;;1.82;100.00
71057;BME280;58380;48.312;9.246;2022-11-30T16:28:38;93776.66;;;1.53;100.00
71057;BME280;58380;48.312;9.246;2022-11-30T16:31:03;93727.16;;;1.19;100.00
71057;BME280;58380;48.312;9.246;2022-11-30T16:33:29;93809.91;;;1.70;100.00
71057;BME280;58380;48.312;9.246;2022-11-30T16:36:06;93806.69;;;1.75;100.00
71057;BME280;58380;48.312;9.246;2022-11-30T16:38:37;93799.47;;;1.70;100.00
71057;BME280;58380;48.312;9.246;2022-11-30T16:41:23;93809.69;;;1.72;99.95
71057;BME280;58380;48.312;9.246;2022-11-30T16:43:52;93807.28;;;1.64;99.75
71057;BME280;58380;48.312;9.246;2022-11-30T16:46:28;93789.03;;;1.44;99.34
71057;BME280;58380;48.312;9.246;2022-11-30T16:48:55;93821.72;;;1.73;98.87
71057;BME280;58380;48.312;9.246;2022-11-30T16:51:29;93789.03;;;1.44;98.07
71057;BME280;58380;48.312;9.246;2022-11-30T16:53:58;93816.06;;;1.69;99.23
71057;BME280;58380;48.312;9.246;2022-11-30T16:56:24;93774.22;;;1.38;99.55
71057;BME280;58380;48.312;9.246;2022-11-30T16:58:50;93808.28;;;1.63;98.90
71057;BME280;58380;48.312;9.246;2022-11-30T17:01:28;93811.06;;;1.61;98.86
71057;BME280;58380;48.312;9.246;2022-11-30T17:03:58;93810.09;;;1.62;99.48
71057;BME280;58380;48.312;9.246;2022-11-30T17:06:30;93765.59;;;1.31;98.88
71057;BME280;58380;48.312;9.246;2022-11-30T17:08:56;93791.03;;;1.48;98.94
71057;BME280;58380;48.312;9.246;2022-11-30T17:11:31;93828.91;;;1.78;99.44
71057;BME280;58380;48.312;9.246;2022-11-30T17:13:58;93814.88;;;1.72;99.61
71057;BME280;58380;48.312;9.246;2022-11-30T17:16:24;93825.09;;;1.73;100.00
71057;BME280;58380;48.312;9.246;2022-11-30T17:18:49;93797.44;;;1.59;99.69
71057;BME280;58380;48.312;9.246;2022-11-30T17:21:18;93828.34;;;1.82;99.79
71057;BME280;58380;48.312;9.246;2022-11-30T17:23:48;93830.31;;;1.73;99.05
71057;BME280;58380;48.312;9.246;2022-11-30T17:26:13;93814.25;;;1.57;98.90
71057;BME280;58380;48.312;9.246;2022-11-30T17:28:39;93822.69;;;1.72;99.46
71057;BME280;58380;48.312;9.246;2022-11-30T17:31:06;93817.88;;;1.56;100.00
71057;BME280;58380;48.312;9.246;2022-11-30T17:33:33;93833.72;;;1.67;99.09
71057;BME280;58380;48.312;9.246;2022-11-30T17:36:01;93806.66;;;1.48;99.42
71057;BME280;58380;48.312;9.246;2022-11-30T17:38:30;93820.06;;;1.52;99.82
71057;BME280;58380;48.312;9.246;2022-11-30T17:40:56;93759.94;;;1.07;99.95
71057;BME280;58380;48.312;9.246;2022-11-30T17:43:22;93751.31;;;1.00;99.91
71057;BME280;58380;48.312;9.246;2022-11-30T17:45:48;93839.28;;;1.64;100.00
71057;BME280;58380;48.312;9.246;2022-11-30T17:48:14;93845.91;;;1.60;100.00
71057;BME280;58380;48.312;9.246;2022-11-30T17:50:43;93811.22;;;1.40;100.00
71057;BME280;58380;48.312;9.246;2022-11-30T17:53:09;93848.28;;;1.62;100.00
71057;BME280;58380;48.312;9.246;2022-11-30T17:55:35;93844.50;;;1.64;100.00
71057;BME280;58380;48.312;9.246;2022-11-30T17:58:00;93812.25;;;1.45;100.00
71057;BME280;58380;48.312;9.246;2022-11-30T18:00:26;93833.47;;;1.56;100.00
71057;BME280;58380;48.312;9.246;2022-11-30T18:02:51;93848.28;;;1.62;99.84
71057;BME280;58380;48.312;9.246;2022-11-30T18:05:18;93827.84;;;1.52;99.79
71057;BME280;58380;48.312;9.246;2022-11-30T18:07:45;93832.91;;;1.60;99.80
71057;BME280;58380;48.312;9.246;2022-11-30T18:10:11;93809.63;;;1.39;99.82
71057;BME280;58380;48.312;9.246;2022-11-30T18:12:37;93765.78;;;1.22;100.00
71057;BME280;58380;48.312;9.246;2022-11-30T18:15:03;93824.25;;;1.60;100.00
71057;BME280;58380;48.312;9.246;2022-11-30T18:17:30;93794.88;;;1.53;100.00
71057;BME280;58380;48.312;9.246;2022-11-30T18:19:56;93790.44;;;1.46;100.00
71057;BME280;58380;48.312;9.246;2022-11-30T18:22:22;93838.91;;;1.74;100.00
71057;BME280;58380;48.312;9.246;2022-11-30T18:24:47;93844.53;;;1.78;100.00
71057;BME280;58380;48.312;9.246;2022-11-30T18:27:13;93830.69;;;1.64;100.00
71057;BME280;58380;48.312;9.246;2022-11-30T18:29:38;93838.31;;;1.72;100.00
71057;BME280;58380;48.312;9.246;2022-11-30T18:32:04;93854.53;;;1.81;100.00
71057;BME280;58380;48.312;9.246;2022-11-30T18:34:29;93838.72;;;1.76;100.00
71057;BME280;58380;48.312;9.246;2022-11-30T18:36:55;93798.84;;;1.48;100.00
71057;BME280;58380;48.312;9.246;2022-11-30T18:39:20;93795.25;;;1.43;100.00
71057;BME280;58380;48.312;9.246;2022-11-30T18:41:46;93824.28;;;1.66;100.00
71057;BME280;58380;48.312;9.246;2022-11-30T18:44:11;93836.72;;;1.78;100.00
71057;BME280;58380;48.312;9.246;2022-11-30T18:46:37;93731.75;;;1.04;100.00
71057;BME280;58380;48.312;9.246;2022-11-30T18:49:02;93820.69;;;1.61;100.00
71057;BME280;58380;48.312;9.246;2022-11-30T18:51:29;93832.09;;;1.66;100.00
71057;BME280;58380;48.312;9.246;2022-11-30T18:53:57;93813.66;;;1.61;100.00
71057;BME280;58380;48.312;9.246;2022-11-30T18:56:26;93839.72;;;1.81;100.00
71057;BME280;58380;48.312;9.246;2022-11-30T18:58:55;93845.72;;;1.82;100.00
71057;BME280;58380;48.312;9.246;2022-11-30T19:01:26;93834.09;;;1.71;100.00
71057;BME280;58380;48.312;9.246;2022-11-30T19:04:02;93824.91;;;1.75;100.00
71057;BME280;58380;48.312;9.246;2022-11-30T19:06:32;93819.31;;;1.65;100.00
71057;BME280;58380;48.312;9.246;2022-11-30T19:09:00;93853.16;;;1.98;100.00
71057;BME280;58380;48.312;9.246;2022-11-30T19:11:28;93835.31;;;1.82;100.00
71057;BME280;58380;48.312;9.246;2022-11-30T19:13:55;93793.66;;;1.48;100.00
71057;BME280;58380;48.312;9.246;2022-11-30T19:16:23;93816.25;;;1.55;100.00
71057;BME280;58380;48.312;9.246;2022-11-30T19:18:50;93851.13;;;1.87;100.00
71057;BME280;58380;48.312;9.246;2022-11-30T19:21:17;93852.75;;;1.94;100.00
71057;BME280;58380;48.312;9.246;2022-11-30T19:23:44;93838.34;;;1.85;100.00
71057;BME280;58380;48.312;9.246;2022-11-30T19:26:10;93861.75;;;1.92;100.00
71057;BME280;58380;48.312;9.246;2022-11-30T19:28:38;93855.97;;;1.90;100.00
71057;BME280;58380;48.312;9.246;2022-11-30T19:31:11;93857.97;;;1.88;100.00
71057;BME280;58380;48.312;9.246;2022-11-30T19:33:44;93816.28;;;1.61;100.00
71057;BME280;58380;48.312;9.246;2022-11-30T19:36:26;93835.50;;;1.73;100.00
71057;BME280;58380;48.312;9.246;2022-11-30T19:38:53;93865.75;;;1.94;100.00
71057;BME280;58380;48.312;9.246;2022-11-30T19:41:19;93864.34;;;1.92;100.00
71057;BME280;58380;48.312;9.246;2022-11-30T19:43:46;93863.56;;;1.91;100.00
71057;BME280;58380;48.312;9.246;2022-11-30T19:46:14;93863.16;;;1.88;100.00
71057;BME280;58380;48.312;9.246;2022-11-30T19:48:42;93863.16;;;1.88;100.00
71057;BME280;58380;48.312;9.246;2022-11-30T19:51:13;93853.56;;;1.88;100.00
71057;BME280;58380;48.312;9.246;2022-11-30T19:53:41;93815.88;;;1.58;100.00
71057;BME280;58380;48.312;9.246;2022-11-30T19:56:10;93780.63;;;1.35;100.00
71057;BME280;58380;48.312;9.246;2022-11-30T19:58:44;93859.56;;;1.89;100.00
71057;BME280;58380;48.312;9.246;2022-11-30T20:01:14;93867.97;;;1.91;100.00
71057;BME280;58380;48.312;9.246;2022-11-30T20:03:41;93867.75;;;1.86;100.00
71057;BME280;58380;48.312;9.246;2022-11-30T20:06:08;93831.69;;;1.63;100.00
71057;BME280;58380;48.312;9.246;2022-11-30T20:08:36;93846.31;;;1.70;100.00
71057;BME280;58380;48.312;9.246;2022-11-30T20:11:10;93864.16;;;1.80;100.00
71057;BME280;58380;48.312;9.246;2022-11-30T20:13:37;93835.28;;;1.62;100.00
71057;BME280;58380;48.312;9.246;2022-11-30T20:16:08;93806.22;;;1.38;100.00
71057;BME280;58380;48.312;9.246;2022-11-30T20:18:38;93847.72;;;1.80;100.00
71057;BME280;58380;48.312;9.246;2022-11-30T20:21:24;93845.91;;;1.67;100.00
71057;BME280;58380;48.312;9.246;2022-11-30T20:23:53;93838.09;;;1.60;100.00
71057;BME280;58380;48.312;9.246;2022-11-30T20:26:27;93797.25;;;1.47;100.00
71057;BME280;58380;48.312;9.246;2022-11-30T20:28:58;93839.09;;;1.53;100.00
71057;BME280;58380;48.312;9.246;2022-11-30T20:31:26;93834.69;;;1.53;100.00
71057;BME280;58380;48.312;9.246;2022-11-30T20:33:53;93822.03;;;1.37;100.00
71057;BME280;58380;48.312;9.246;2022-11-30T20:36:19;93843.47;;;1.52;100.00
71057;BME280;58380;48.312;9.246;2022-11-30T20:38:46;93849.88;;;1.56;100.00
71057;BME280;58380;48.312;9.246;2022-11-30T20:41:15;93854.09;;;1.57;100.00
71057;BME280;58380;48.312;9.246;2022-11-30T20:43:43;93786.16;;;1.19;100.00
71057;BME280;58380;48.312;9.246;2022-11-30T20:46:35;93850.91;;;1.62;100.00
71057;BME280;58380;48.312;9.246;2022-11-30T20:49:02;93829.44;;;1.46;100.00
71057;BME280;58380;48.312;9.246;2022-11-30T20:51:33;93830.06;;;1.48;100.00
71057;BME280;58380;48.312;9.246;2022-11-30T20:54:03;93867.91;;;1.64;100.00
71057;BME280;58380;48.312;9.246;2022-11-30T20:56:32;93854.47;;;1.54;100.00
71057;BME280;58380;48.312;9.246;2022-11-30T20:59:00;93847.28;;;1.56;100.00
71057;BME280;58380;48.312;9.246;2022-11-30T21:01:27;93840.66;;;1.47;100.00
71057;BME280;58380;48.312;9.246;2022-11-30T21:03:53;93855.09;;;1.56;100.00
71057;BME280;58380;48.312;9.246;2022-11-30T21:06:18;93845.84;;;1.40;100.00
71057;BME280;58380;48.312;9.246;2022-11-30T21:08:43;93857.44;;;1.44;100.00
71057;BME280;58380;48.312;9.246;2022-11-30T21:11:14;93873.88;;;1.51;100.00
71057;BME280;58380;48.312;9.246;2022-11-30T21:13:43;93874.31;;;1.55;100.00
71057;BME280;58380;48.312;9.246;2022-11-30T21:16:11;93879.88;;;1.45;100.00
71057;BME280;58380;48.312;9.246;2022-11-30T21:18:39;93789.84;;;0.83;100.00
71057;BME280;58380;48.312;9.246;2022-11-30T21:21:11;93871.22;;;1.32;100.00
71057;BME280;58380;48.312;9.246;2022-11-30T21:23:47;93862.00;;;1.22;100.00
71057;BME280;58380;48.312;9.246;2022-11-30T21:28:50;93877.03;;;1.34;100.00
71057;BME280;58380;48.312;9.246;2022-11-30T21:31:21;93868.84;;;1.37;100.00
71057;BME280;58380;48.312;9.246;2022-11-30T21:33:47;93868.38;;;1.20;100.00
